sensor_id;sensor_type;location;lat;lon;timestamp;pressure;altitude;pressure_sealevel;temperature;humidity
79639;BME280;69114;49.108;8.280;2023-04-15T00:00:35;99550.19;;;3.48;78.65
79639;BME280;69114;49.108;8.280;2023-04-15T00:03:01;99554.63;;;3.44;78.77
79639;BME280;69114;49.108;8.280;2023-04-15T00:05:28;99545.28;;;3.40;80.07
79639;BME280;69114;49.108;8.280;2023-04-15T00:07:54;99545.31;;;3.35;79.74
79639;BME280;69114;49.108;8.280;2023-04-15T00:10:19;99542.59;;;3.30;80.11
79639;BME280;69114;49.108;8.280;2023-04-15T00:12:44;99539.88;;;3.25;80.28
79639;BME280;69114;49.108;8.280;2023-04-15T00:15:10;99546.19;;;3.25;79.71
79639;BME280;69114;49.108;8.280;2023-04-15T00:17:36;99543.16;;;3.22;79.98
79639;BME280;69114;49.108;8.280;2023-04-15T00:20:03;99540.72;;;3.20;80.03
79639;BME280;69114;49.108;8.280;2023-04-15T00:22:30;99537.69;;;3.17;79.59
79639;BME280;69114;49.108;8.280;2023-04-15T00:24:56;99541.56;;;3.16;79.03
79639;BME280;69114;49.108;8.280;2023-04-15T00:27:22;99545.97;;;3.12;80.71
79639;BME280;69114;49.108;8.280;2023-04-15T00:29:47;99533.34;;;3.05;80.31
79639;BME280;69114;49.108;8.280;2023-04-15T00:32:12;99538.31;;;3.03;80.14
79639;BME280;69114;49.108;8.280;2023-04-15T00:34:38;99524.84;;;3.02;79.88
79639;BME280;69114;49.108;8.280;2023-04-15T00:37:03;99528.44;;;2.97;79.83
79639;BME280;69114;49.108;8.280;2023-04-15T00:39:29;99529.53;;;3.01;80.28
79639;BME280;69114;49.108;8.280;2023-04-15T00:41:55;99531.97;;;3.08;80.37
79639;BME280;69114;49.108;8.280;2023-04-15T00:44:21;99526.47;;;3.03;80.68
79639;BME280;69114;49.108;8.280;2023-04-15T00:46:47;99531.22;;;2.92;80.28
79639;BME280;69114;49.108;8.280;2023-04-15T00:49:14;99526.56;;;2.82;80.64
79639;BME280;69114;49.108;8.280;2023-04-15T00:51:40;99524.69;;;2.73;80.64
79639;BME280;69114;49.108;8.280;2023-04-15T00:54:05;99530.47;;;2.71;81.32
79639;BME280;69114;49.108;8.280;2023-04-15T00:56:36;99525.22;;;2.70;81.20
79639;BME280;69114;49.108;8.280;2023-04-15T00:59:02;99523.06;;;2.67;82.16
79639;BME280;69114;49.108;8.280;2023-04-15T01:01:28;99513.44;;;2.64;81.56
79639;BME280;69114;49.108;8.280;2023-04-15T01:03:56;99519.19;;;2.68;81.42
79639;BME280;69114;49.108;8.280;2023-04-15T01:06:24;99520.06;;;2.58;81.38
79639;BME280;69114;49.108;8.280;2023-04-15T01:08:51;99520.34;;;2.56;82.03
79639;BME280;69114;49.108;8.280;2023-04-15T01:11:17;99524.47;;;2.54;81.93
79639;BME280;69114;49.108;8.280;2023-04-15T01:13:43;99531.91;;;2.48;81.94
79639;BME280;69114;49.108;8.280;2023-04-15T01:16:08;99522.25;;;2.51;82.28
79639;BME280;69114;49.108;8.280;2023-04-15T01:18:35;99519.78;;;2.54;82.03
79639;BME280;69114;49.108;8.280;2023-04-15T01:21:03;99521.19;;;2.52;81.66
79639;BME280;69114;49.108;8.280;2023-04-15T01:23:29;99523.38;;;2.50;82.95
79639;BME280;69114;49.108;8.280;2023-04-15T01:25:55;99528.06;;;2.49;82.36
79639;BME280;69114;49.108;8.280;2023-04-15T01:28:20;99513.78;;;2.47;82.15
79639;BME280;69114;49.108;8.280;2023-04-15T01:30:46;99522.03;;;2.42;82.58
79639;BME280;69114;49.108;8.280;2023-04-15T01:33:11;99524.78;;;2.42;82.08
79639;BME280;69114;49.108;8.280;2023-04-15T01:35:37;99519.84;;;2.39;82.46
79639;BME280;69114;49.108;8.280;2023-04-15T01:38:07;99518.19;;;2.38;82.81
79639;BME280;69114;49.108;8.280;2023-04-15T01:40:33;99523.94;;;2.37;83.46
79639;BME280;69114;49.108;8.280;2023-04-15T01:42:59;99523.41;;;2.35;83.16
79639;BME280;69114;49.108;8.280;2023-04-15T01:45:25;99515.47;;;2.33;82.87
79639;BME280;69114;49.108;8.280;2023-04-15T01:47:51;99523.69;;;2.33;82.05
79639;BME280;69114;49.108;8.280;2023-04-15T01:50:17;99515.47;;;2.28;83.15
79639;BME280;69114;49.108;8.280;2023-04-15T01:52:43;99524.81;;;2.22;83.44
79639;BME280;69114;49.108;8.280;2023-04-15T01:55:09;99514.91;;;2.21;83.36
79639;BME280;69114;49.108;8.280;2023-04-15T01:57:34;99521.50;;;2.25;82.16
79639;BME280;69114;49.108;8.280;2023-04-15T02:00:00;99525.38;;;2.19;82.92
79639;BME280;69114;49.108;8.280;2023-04-15T02:02:25;99516.56;;;2.12;82.88
79639;BME280;69114;49.108;8.280;2023-04-15T02:04:50;99524.28;;;2.10;83.36
79639;BME280;69114;49.108;8.280;2023-04-15T02:07:16;99525.94;;;2.11;83.14
79639;BME280;69114;49.108;8.280;2023-04-15T02:09:41;99524.00;;;2.16;83.36
79639;BME280;69114;49.108;8.280;2023-04-15T02:12:08;99519.88;;;2.14;83.64
79639;BME280;69114;49.108;8.280;2023-04-15T02:14:33;99527.84;;;2.15;84.20
79639;BME280;69114;49.108;8.280;2023-04-15T02:16:59;99527.03;;;2.15;83.05
79639;BME280;69114;49.108;8.280;2023-04-15T02:19:31;99531.41;;;2.11;82.98
79639;BME280;69114;49.108;8.280;2023-04-15T02:21:56;99526.47;;;2.08;84.06
79639;BME280;69114;49.108;8.280;2023-04-15T02:24:21;99526.47;;;2.13;83.92
79639;BME280;69114;49.108;8.280;2023-04-15T02:26:47;99527.00;;;1.94;83.42
79639;BME280;69114;49.108;8.280;2023-04-15T02:29:12;99523.16;;;1.80;83.54
79639;BME280;69114;49.108;8.280;2023-04-15T02:31:37;99529.75;;;1.69;84.94
79639;BME280;69114;49.108;8.280;2023-04-15T02:34:04;99526.19;;;1.63;84.61
79639;BME280;69114;49.108;8.280;2023-04-15T02:36:30;99533.59;;;1.52;84.51
79639;BME280;69114;49.108;8.280;2023-04-15T02:38:56;99530.28;;;1.56;84.98
79639;BME280;69114;49.108;8.280;2023-04-15T02:41:21;99531.94;;;1.57;84.65
79639;BME280;69114;49.108;8.280;2023-04-15T02:43:51;99531.41;;;1.49;84.44
79639;BME280;69114;49.108;8.280;2023-04-15T02:46:16;99532.50;;;1.53;84.23
79639;BME280;69114;49.108;8.280;2023-04-15T02:48:42;99534.72;;;1.62;83.70
79639;BME280;69114;49.108;8.280;2023-04-15T02:51:14;99534.72;;;1.67;83.77
79639;BME280;69114;49.108;8.280;2023-04-15T02:53:40;99547.06;;;1.69;83.53
79639;BME280;69114;49.108;8.280;2023-04-15T02:56:06;99544.31;;;1.69;82.92
79639;BME280;69114;49.108;8.280;2023-04-15T02:58:32;99538.81;;;1.59;83.30
79639;BME280;69114;49.108;8.280;2023-04-15T03:00:58;99538.53;;;1.66;83.17
79639;BME280;69114;49.108;8.280;2023-04-15T03:03:24;99543.50;;;1.64;83.87
79639;BME280;69114;49.108;8.280;2023-04-15T03:05:50;99544.31;;;1.64;83.80
79639;BME280;69114;49.108;8.280;2023-04-15T03:08:16;99538.53;;;1.61;84.01
79639;BME280;69114;49.108;8.280;2023-04-15T03:10:41;99535.25;;;1.59;84.19
79639;BME280;69114;49.108;8.280;2023-04-15T03:13:06;99539.09;;;1.58;84.48
79639;BME280;69114;49.108;8.280;2023-04-15T03:15:32;99550.91;;;1.58;85.18
79639;BME280;69114;49.108;8.280;2023-04-15T03:17:58;99550.63;;;1.60;85.60
79639;BME280;69114;49.108;8.280;2023-04-15T03:20:23;99543.47;;;1.53;85.72
79639;BME280;69114;49.108;8.280;2023-04-15T03:22:48;99555.81;;;1.56;85.82
79639;BME280;69114;49.108;8.280;2023-04-15T03:25:14;99545.94;;;1.55;85.32
79639;BME280;69114;49.108;8.280;2023-04-15T03:27:40;99541.56;;;1.59;85.48
79639;BME280;69114;49.108;8.280;2023-04-15T03:30:06;99539.09;;;1.58;85.86
79639;BME280;69114;49.108;8.280;2023-04-15T03:32:32;99538.00;;;1.53;85.46
79639;BME280;69114;49.108;8.280;2023-04-15T03:34:57;99544.03;;;1.61;85.42
79639;BME280;69114;49.108;8.280;2023-04-15T03:37:22;99533.03;;;1.56;85.79
79639;BME280;69114;49.108;8.280;2023-04-15T03:39:48;99531.94;;;1.51;85.98
79639;BME280;69114;49.108;8.280;2023-04-15T03:42:13;99532.50;;;1.48;86.07
79639;BME280;69114;49.108;8.280;2023-04-15T03:44:38;99539.63;;;1.49;86.49
79639;BME280;69114;49.108;8.280;2023-04-15T03:47:04;99538.00;;;1.48;86.43
79639;BME280;69114;49.108;8.280;2023-04-15T03:49:29;99546.75;;;1.56;85.65
79639;BME280;69114;49.108;8.280;2023-04-15T03:51:54;99551.72;;;1.53;86.00
79639;BME280;69114;49.108;8.280;2023-04-15T03:54:20;99542.38;;;1.49;85.69
79639;BME280;69114;49.108;8.280;2023-04-15T03:56:45;99542.06;;;1.41;85.69
79639;BME280;69114;49.108;8.280;2023-04-15T03:59:11;99542.88;;;1.26;85.68
79639;BME280;69114;49.108;8.280;2023-04-15T04:01:36;99537.66;;;1.30;86.61
79639;BME280;69114;49.108;8.280;2023-04-15T04:04:01;99546.44;;;1.37;85.71
79639;BME280;69114;49.108;8.280;2023-04-15T04:06:27;99535.19;;;1.28;85.55
79639;BME280;69114;49.108;8.280;2023-04-15T04:08:52;99543.47;;;1.38;84.70
79639;BME280;69114;49.108;8.280;2023-04-15T04:11:17;99544.28;;;1.34;85.05
79639;BME280;69114;49.108;8.280;2023-04-15T04:13:43;99541.22;;;1.25;85.18
79639;BME280;69114;49.108;8.280;2023-04-15T04:16:08;99550.53;;;1.19;85.60
79639;BME280;69114;49.108;8.280;2023-04-15T04:18:33;99545.88;;;1.14;86.54
79639;BME280;69114;49.108;8.280;2023-04-15T04:20:59;99552.72;;;1.17;86.36
79639;BME280;69114;49.108;8.280;2023-04-15T04:23:25;99546.94;;;1.13;86.23
79639;BME280;69114;49.108;8.280;2023-04-15T04:25:50;99555.47;;;1.17;87.19
79639;BME280;69114;49.108;8.280;2023-04-15T04:28:17;99545.06;;;1.19;86.77
79639;BME280;69114;49.108;8.280;2023-04-15T04:30:42;99551.09;;;1.21;86.00
79639;BME280;69114;49.108;8.280;2023-04-15T04:33:08;99558.50;;;1.20;86.47
79639;BME280;69114;49.108;8.280;2023-04-15T04:35:33;99554.63;;;1.16;86.64
79639;BME280;69114;49.108;8.280;2023-04-15T04:38:01;99559.31;;;1.26;85.92
79639;BME280;69114;49.108;8.280;2023-04-15T04:40:27;99555.47;;;1.17;85.67
79639;BME280;69114;49.108;8.280;2023-04-15T04:42:52;99560.63;;;1.03;85.83
79639;BME280;69114;49.108;8.280;2023-04-15T04:45:18;99560.91;;;1.01;86.40
79639;BME280;69114;49.108;8.280;2023-04-15T04:47:44;99562.53;;;0.97;86.77
79639;BME280;69114;49.108;8.280;2023-04-15T04:50:10;99561.69;;;0.92;85.61
79639;BME280;69114;49.108;8.280;2023-04-15T04:52:36;99565.66;;;0.69;86.13
79639;BME280;69114;49.108;8.280;2023-04-15T04:55:02;99581.28;;;0.63;86.64
79639;BME280;69114;49.108;8.280;2023-04-15T04:57:27;99569.50;;;0.68;86.57
79639;BME280;69114;49.108;8.280;2023-04-15T04:59:53;99583.22;;;0.68;87.34
79639;BME280;69114;49.108;8.280;2023-04-15T05:02:18;99572.03;;;0.85;86.36
79639;BME280;69114;49.108;8.280;2023-04-15T05:04:43;99578.97;;;0.97;85.36
79639;BME280;69114;49.108;8.280;2023-04-15T05:07:09;99580.09;;;1.01;85.69
79639;BME280;69114;49.108;8.280;2023-04-15T05:09:34;99576.56;;;1.11;85.66
79639;BME280;69114;49.108;8.280;2023-04-15T05:12:01;99579.50;;;0.99;85.59
79639;BME280;69114;49.108;8.280;2023-04-15T05:14:26;99574.31;;;0.98;85.65
79639;BME280;69114;49.108;8.280;2023-04-15T05:16:52;99594.59;;;0.97;86.17
79639;BME280;69114;49.108;8.280;2023-04-15T05:19:17;99578.16;;;0.97;85.94
79639;BME280;69114;49.108;8.280;2023-04-15T05:21:42;99586.13;;;1.09;85.48
79639;BME280;69114;49.108;8.280;2023-04-15T05:24:08;99586.22;;;1.29;85.33
79639;BME280;69114;49.108;8.280;2023-04-15T05:26:33;99589.03;;;1.49;84.45
79639;BME280;69114;49.108;8.280;2023-04-15T05:28:58;99587.69;;;1.57;84.21
79639;BME280;69114;49.108;8.280;2023-04-15T05:31:24;99597.28;;;1.70;83.82
79639;BME280;69114;49.108;8.280;2023-04-15T05:33:49;99594.84;;;1.78;84.30
79639;BME280;69114;49.108;8.280;2023-04-15T05:36:15;99601.72;;;1.91;84.50
79639;BME280;69114;49.108;8.280;2023-04-15T05:38:40;99595.13;;;2.02;83.10
79639;BME280;69114;49.108;8.280;2023-04-15T05:41:06;99605.03;;;2.09;83.23
79639;BME280;69114;49.108;8.280;2023-04-15T05:43:31;99594.88;;;2.14;82.95
79639;BME280;69114;49.108;8.280;2023-04-15T05:45:56;99595.97;;;2.23;83.17
79639;BME280;69114;49.108;8.280;2023-04-15T05:48:22;99596.50;;;2.30;83.09
79639;BME280;69114;49.108;8.280;2023-04-15T05:50:47;99597.34;;;2.26;83.86
79639;BME280;69114;49.108;8.280;2023-04-15T05:53:12;99600.63;;;2.38;83.43
79639;BME280;69114;49.108;8.280;2023-04-15T05:55:41;99602.81;;;2.51;84.05
79639;BME280;69114;49.108;8.280;2023-04-15T05:58:06;99598.97;;;2.63;83.88
79639;BME280;69114;49.108;8.280;2023-04-15T06:00:31;99603.59;;;2.72;83.91
79639;BME280;69114;49.108;8.280;2023-04-15T06:02:57;99604.94;;;2.90;83.26
79639;BME280;69114;49.108;8.280;2023-04-15T06:05:23;99602.72;;;2.97;83.26
79639;BME280;69114;49.108;8.280;2023-04-15T06:07:49;99599.63;;;3.14;83.13
79639;BME280;69114;49.108;8.280;2023-04-15T06:10:14;99597.38;;;3.26;82.63
79639;BME280;69114;49.108;8.280;2023-04-15T06:12:40;99602.53;;;3.43;83.34
79639;BME280;69114;49.108;8.280;2023-04-15T06:15:06;99596.94;;;3.58;82.40
79639;BME280;69114;49.108;8.280;2023-04-15T06:17:33;99603.16;;;3.74;82.17
79639;BME280;69114;49.108;8.280;2023-04-15T06:19:59;99600.88;;;3.92;81.69
79639;BME280;69114;49.108;8.280;2023-04-15T06:22:24;99603.75;;;4.10;81.17
79639;BME280;69114;49.108;8.280;2023-04-15T06:24:50;99608.03;;;4.27;79.76
79639;BME280;69114;49.108;8.280;2023-04-15T06:27:16;99609.81;;;4.47;78.96
79639;BME280;69114;49.108;8.280;2023-04-15T06:29:41;99614.56;;;4.65;79.24
79639;BME280;69114;49.108;8.280;2023-04-15T06:32:07;99609.19;;;4.79;77.55
79639;BME280;69114;49.108;8.280;2023-04-15T06:34:32;99601.88;;;4.93;77.30
79639;BME280;69114;49.108;8.280;2023-04-15T06:36:58;99605.56;;;5.07;76.29
79639;BME280;69114;49.108;8.280;2023-04-15T06:39:23;99617.63;;;5.17;75.03
79639;BME280;69114;49.108;8.280;2023-04-15T06:41:48;99610.06;;;5.27;75.73
79639;BME280;69114;49.108;8.280;2023-04-15T06:44:14;99614.78;;;5.46;75.14
79639;BME280;69114;49.108;8.280;2023-04-15T06:46:40;99610.94;;;5.65;74.17
79639;BME280;69114;49.108;8.280;2023-04-15T06:49:05;99610.09;;;5.84;73.43
79639;BME280;69114;49.108;8.280;2023-04-15T06:51:30;99613.75;;;6.03;71.65
79639;BME280;69114;49.108;8.280;2023-04-15T06:53:56;99615.97;;;6.20;71.95
79639;BME280;69114;49.108;8.280;2023-04-15T06:56:22;99607.00;;;6.28;71.76
79639;BME280;69114;49.108;8.280;2023-04-15T06:58:48;99613.84;;;6.31;69.87
79639;BME280;69114;49.108;8.280;2023-04-15T07:01:13;99611.38;;;6.29;70.76
79639;BME280;69114;49.108;8.280;2023-04-15T07:03:38;99609.13;;;6.31;70.29
79639;BME280;69114;49.108;8.280;2023-04-15T07:06:04;99613.25;;;6.34;72.70
79639;BME280;69114;49.108;8.280;2023-04-15T07:08:32;99617.88;;;6.38;73.66
79639;BME280;69114;49.108;8.280;2023-04-15T07:10:58;99614.94;;;6.49;72.95
79639;BME280;69114;49.108;8.280;2023-04-15T07:13:24;99629.72;;;6.58;72.24
79639;BME280;69114;49.108;8.280;2023-04-15T07:15:49;99613.75;;;6.68;72.41
79639;BME280;69114;49.108;8.280;2023-04-15T07:18:14;99617.47;;;6.78;70.67
79639;BME280;69114;49.108;8.280;2023-04-15T07:20:41;99606.31;;;6.83;70.51
79639;BME280;69114;49.108;8.280;2023-04-15T07:23:07;99614.00;;;6.86;69.83
79639;BME280;69114;49.108;8.280;2023-04-15T07:25:35;99618.94;;;6.89;68.76
79639;BME280;69114;49.108;8.280;2023-04-15T07:28:00;99617.91;;;6.85;67.67
79639;BME280;69114;49.108;8.280;2023-04-15T07:30:26;99614.09;;;6.81;67.23
79639;BME280;69114;49.108;8.280;2023-04-15T07:32:51;99615.63;;;6.87;68.13
79639;BME280;69114;49.108;8.280;2023-04-15T07:35:17;99615.63;;;6.87;67.48
79639;BME280;69114;49.108;8.280;2023-04-15T07:37:45;99610.00;;;6.92;66.71
79639;BME280;69114;49.108;8.280;2023-04-15T07:40:10;99621.81;;;7.11;67.30
79639;BME280;69114;49.108;8.280;2023-04-15T07:42:36;99621.31;;;7.23;68.49
79639;BME280;69114;49.108;8.280;2023-04-15T07:45:01;99620.09;;;7.29;67.51
79639;BME280;69114;49.108;8.280;2023-04-15T07:47:27;99623.56;;;7.35;68.15
79639;BME280;69114;49.108;8.280;2023-04-15T07:49:52;99629.53;;;7.42;67.50
79639;BME280;69114;49.108;8.280;2023-04-15T07:54:52;99617.78;;;7.73;66.91
79639;BME280;69114;49.108;8.280;2023-04-15T07:57:17;99616.72;;;7.96;65.17
79639;BME280;69114;49.108;8.280;2023-04-15T07:59:43;99621.28;;;8.14;65.47
79639;BME280;69114;49.108;8.280;2023-04-15T08:02:08;99617.75;;;8.23;63.45
79639;BME280;69114;49.108;8.280;2023-04-15T08:04:35;99632.25;;;8.19;63.47
79639;BME280;69114;49.108;8.280;2023-04-15T08:07:00;99631.16;;;8.43;64.76
79639;BME280;69114;49.108;8.280;2023-04-15T08:09:25;99626.88;;;8.59;63.82
79639;BME280;69114;49.108;8.280;2023-04-15T08:11:51;99625.09;;;8.63;61.39
79639;BME280;69114;49.108;8.280;2023-04-15T08:14:17;99625.34;;;8.76;63.59
79639;BME280;69114;49.108;8.280;2023-04-15T08:16:42;99629.34;;;8.92;62.35
79639;BME280;69114;49.108;8.280;2023-04-15T08:19:08;99619.16;;;9.10;62.22
79639;BME280;69114;49.108;8.280;2023-04-15T08:21:33;99615.69;;;9.04;60.29
79639;BME280;69114;49.108;8.280;2023-04-15T08:23:59;99616.59;;;8.91;62.48
79639;BME280;69114;49.108;8.280;2023-04-15T08:26:24;99628.94;;;9.47;60.58
79639;BME280;69114;49.108;8.280;2023-04-15T08:28:50;99622.66;;;9.90;59.48
79639;BME280;69114;49.108;8.280;2023-04-15T08:31:17;99620.06;;;9.85;58.32
79639;BME280;69114;49.108;8.280;2023-04-15T08:33:42;99622.66;;;9.90;58.48
79639;BME280;69114;49.108;8.280;2023-04-15T08:36:08;99622.22;;;10.22;58.22
79639;BME280;69114;49.108;8.280;2023-04-15T08:38:34;99625.63;;;10.11;57.07
79639;BME280;69114;49.108;8.280;2023-04-15T08:41:03;99623.06;;;10.40;56.62
79639;BME280;69114;49.108;8.280;2023-04-15T08:43:37;99623.19;;;10.44;56.52
79639;BME280;69114;49.108;8.280;2023-04-15T08:46:06;99628.78;;;10.27;56.99
79639;BME280;69114;49.108;8.280;2023-04-15T08:48:37;99625.34;;;10.30;55.10
79639;BME280;69114;49.108;8.280;2023-04-15T08:51:03;99620.94;;;10.46;55.34
79639;BME280;69114;49.108;8.280;2023-04-15T08:53:29;99628.41;;;10.71;55.65
79639;BME280;69114;49.108;8.280;2023-04-15T08:55:56;99622.22;;;10.57;54.72
79639;BME280;69114;49.108;8.280;2023-04-15T08:58:22;99626.16;;;10.39;54.30
79639;BME280;69114;49.108;8.280;2023-04-15T09:00:48;99622.53;;;10.64;54.72
79639;BME280;69114;49.108;8.280;2023-04-15T09:03:15;99623.81;;;10.84;53.96
79639;BME280;69114;49.108;8.280;2023-04-15T09:05:41;99630.28;;;11.14;54.52
79639;BME280;69114;49.108;8.280;2023-04-15T09:08:07;99629.16;;;11.07;53.87
79639;BME280;69114;49.108;8.280;2023-04-15T09:10:33;99638.16;;;11.12;54.23
79639;BME280;69114;49.108;8.280;2023-04-15T09:12:58;99632.03;;;11.27;53.23
79639;BME280;69114;49.108;8.280;2023-04-15T09:15:24;99643.41;;;11.52;53.48
79639;BME280;69114;49.108;8.280;2023-04-15T09:17:49;99642.94;;;11.50;52.56
79639;BME280;69114;49.108;8.280;2023-04-15T09:20:16;99644.03;;;11.58;52.26
79639;BME280;69114;49.108;8.280;2023-04-15T09:22:45;99641.91;;;11.93;52.59
79639;BME280;69114;49.108;8.280;2023-04-15T09:27:53;99645.50;;;11.93;53.23
79639;BME280;69114;49.108;8.280;2023-04-15T09:30:19;99650.69;;;11.83;53.44
79639;BME280;69114;49.108;8.280;2023-04-15T09:32:57;99642.56;;;11.90;52.97
79639;BME280;69114;49.108;8.280;2023-04-15T09:35:23;99659.47;;;11.93;53.27
79639;BME280;69114;49.108;8.280;2023-04-15T09:37:49;99655.31;;;11.99;53.03
79639;BME280;69114;49.108;8.280;2023-04-15T09:40:36;99654.75;;;11.85;53.39
79639;BME280;69114;49.108;8.280;2023-04-15T09:43:03;99654.91;;;12.10;52.68
79639;BME280;69114;49.108;8.280;2023-04-15T09:45:30;99660.53;;;12.30;52.33
79639;BME280;69114;49.108;8.280;2023-04-15T09:48:13;99660.91;;;12.62;51.37
79639;BME280;69114;49.108;8.280;2023-04-15T09:50:41;99668.25;;;12.88;52.44
79639;BME280;69114;49.108;8.280;2023-04-15T09:53:09;99666.50;;;12.95;50.06
79639;BME280;69114;49.108;8.280;2023-04-15T09:55:35;99669.50;;;12.57;51.66
79639;BME280;69114;49.108;8.280;2023-04-15T09:58:00;99673.53;;;12.47;51.78
79639;BME280;69114;49.108;8.280;2023-04-15T10:00:25;99671.41;;;12.98;50.52
79639;BME280;69114;49.108;8.280;2023-04-15T10:05:28;99671.56;;;13.02;51.37
79639;BME280;69114;49.108;8.280;2023-04-15T10:07:53;99682.47;;;13.28;51.83
79639;BME280;69114;49.108;8.280;2023-04-15T10:10:19;99676.56;;;13.42;50.89
79639;BME280;69114;49.108;8.280;2023-04-15T10:12:45;99684.28;;;13.57;49.70
79639;BME280;69114;49.108;8.280;2023-04-15T10:15:14;99684.19;;;13.53;49.70
79639;BME280;69114;49.108;8.280;2023-04-15T10:17:42;99669.72;;;13.06;49.83
79639;BME280;69114;49.108;8.280;2023-04-15T10:20:09;99676.88;;;13.28;50.47
79639;BME280;69114;49.108;8.280;2023-04-15T10:22:35;99682.78;;;13.60;50.42
79639;BME280;69114;49.108;8.280;2023-04-15T10:25:01;99676.09;;;14.13;49.67
79639;BME280;69114;49.108;8.280;2023-04-15T10:27:27;99677.69;;;14.51;46.95
79639;BME280;69114;49.108;8.280;2023-04-15T10:29:53;99677.94;;;14.58;48.31
79639;BME280;69114;49.108;8.280;2023-04-15T10:32:20;99678.16;;;14.41;48.38
79639;BME280;69114;49.108;8.280;2023-04-15T10:34:50;99674.38;;;14.73;45.29
79639;BME280;69114;49.108;8.280;2023-04-15T10:37:21;99672.66;;;14.84;46.08
79639;BME280;69114;49.108;8.280;2023-04-15T10:39:46;99681.50;;;14.99;44.27
79639;BME280;69114;49.108;8.280;2023-04-15T10:42:14;99674.00;;;15.19;42.80
79639;BME280;69114;49.108;8.280;2023-04-15T10:44:50;99680.53;;;15.07;39.42
79639;BME280;69114;49.108;8.280;2023-04-15T10:47:20;99681.91;;;14.85;38.78
79639;BME280;69114;49.108;8.280;2023-04-15T10:52:24;99686.16;;;15.23;37.95
79639;BME280;69114;49.108;8.280;2023-04-15T10:55:01;99688.69;;;15.28;40.60
79639;BME280;69114;49.108;8.280;2023-04-15T10:57:33;99689.56;;;15.60;38.50
79639;BME280;69114;49.108;8.280;2023-04-15T11:00:14;99691.44;;;15.56;39.77
79639;BME280;69114;49.108;8.280;2023-04-15T11:05:06;99693.50;;;14.71;38.91
79639;BME280;69114;49.108;8.280;2023-04-15T11:07:55;99698.09;;;14.64;39.70
79639;BME280;69114;49.108;8.280;2023-04-15T11:13:14;99697.41;;;14.95;37.96
79639;BME280;69114;49.108;8.280;2023-04-15T11:15:45;99694.16;;;14.93;37.63
79639;BME280;69114;49.108;8.280;2023-04-15T11:18:27;99688.19;;;15.54;37.96
79639;BME280;69114;49.108;8.280;2023-04-15T11:20:59;99695.66;;;15.18;37.65
79639;BME280;69114;49.108;8.280;2023-04-15T11:23:34;99692.88;;;15.34;39.10
79639;BME280;69114;49.108;8.280;2023-04-15T11:26:02;99710.41;;;16.06;39.24
79639;BME280;69114;49.108;8.280;2023-04-15T11:28:30;99702.06;;;16.45;38.11
79639;BME280;69114;49.108;8.280;2023-04-15T11:30:56;99713.50;;;16.52;37.09
79639;BME280;69114;49.108;8.280;2023-04-15T11:33:23;99709.31;;;16.46;36.12
79639;BME280;69114;49.108;8.280;2023-04-15T11:35:51;99716.47;;;16.08;36.58
79639;BME280;69114;49.108;8.280;2023-04-15T11:38:18;99706.78;;;16.06;34.86
79639;BME280;69114;49.108;8.280;2023-04-15T11:40:44;99708.91;;;16.28;35.52
79639;BME280;69114;49.108;8.280;2023-04-15T11:43:10;99708.81;;;16.60;36.41
79639;BME280;69114;49.108;8.280;2023-04-15T11:45:37;99718.97;;;17.42;33.67
79639;BME280;69114;49.108;8.280;2023-04-15T11:48:11;99713.88;;;17.48;33.01
79639;BME280;69114;49.108;8.280;2023-04-15T11:50:38;99715.13;;;17.31;34.35
79639;BME280;69114;49.108;8.280;2023-04-15T11:53:11;99729.25;;;16.92;33.74
79639;BME280;69114;49.108;8.280;2023-04-15T11:55:45;99714.13;;;16.46;32.31
79639;BME280;69114;49.108;8.280;2023-04-15T11:58:16;99732.00;;;15.86;35.59
79639;BME280;69114;49.108;8.280;2023-04-15T12:00:46;99721.81;;;15.98;34.99
79639;BME280;69114;49.108;8.280;2023-04-15T12:03:23;99727.66;;;15.45;35.21
79639;BME280;69114;49.108;8.280;2023-04-15T12:11:20;99741.50;;;16.84;34.02
79639;BME280;69114;49.108;8.280;2023-04-15T12:14:02;99736.25;;;17.21;34.57
79639;BME280;69114;49.108;8.280;2023-04-15T12:16:28;99745.19;;;17.88;31.67
79639;BME280;69114;49.108;8.280;2023-04-15T12:18:56;99743.91;;;18.58;30.81
79639;BME280;69114;49.108;8.280;2023-04-15T12:21:24;99752.72;;;17.19;32.05
79639;BME280;69114;49.108;8.280;2023-04-15T12:23:54;99751.09;;;18.56;31.46
79639;BME280;69114;49.108;8.280;2023-04-15T12:26:28;99747.22;;;19.24;29.53
79639;BME280;69114;49.108;8.280;2023-04-15T12:29:07;99745.47;;;19.83;28.02
79639;BME280;69114;49.108;8.280;2023-04-15T12:31:36;99742.00;;;20.01;29.39
79639;BME280;69114;49.108;8.280;2023-04-15T12:34:10;99748.00;;;19.95;26.67
79639;BME280;69114;49.108;8.280;2023-04-15T12:36:35;99746.94;;;19.03;28.12
79639;BME280;69114;49.108;8.280;2023-04-15T12:39:02;99754.47;;;18.91;28.71
79639;BME280;69114;49.108;8.280;2023-04-15T12:41:28;99748.94;;;17.73;29.30
79639;BME280;69114;49.108;8.280;2023-04-15T12:43:54;99755.94;;;16.31;31.63
79639;BME280;69114;49.108;8.280;2023-04-15T12:46:19;99764.50;;;15.72;35.60
79639;BME280;69114;49.108;8.280;2023-04-15T12:48:45;99764.56;;;15.31;33.81
79639;BME280;69114;49.108;8.280;2023-04-15T12:51:11;99761.91;;;15.23;33.50
79639;BME280;69114;49.108;8.280;2023-04-15T12:53:36;99764.13;;;15.29;35.38
79639;BME280;69114;49.108;8.280;2023-04-15T12:56:02;99768.75;;;15.81;34.32
79639;BME280;69114;49.108;8.280;2023-04-15T12:58:27;99765.69;;;16.02;35.03
79639;BME280;69114;49.108;8.280;2023-04-15T13:00:52;99769.66;;;16.17;35.25
79639;BME280;69114;49.108;8.280;2023-04-15T13:03:18;99769.44;;;16.42;32.73
79639;BME280;69114;49.108;8.280;2023-04-15T13:05:43;99775.41;;;16.56;34.70
79639;BME280;69114;49.108;8.280;2023-04-15T13:08:08;99768.41;;;17.39;33.26
79639;BME280;69114;49.108;8.280;2023-04-15T13:10:34;99772.72;;;17.56;32.43
79639;BME280;69114;49.108;8.280;2023-04-15T13:13:03;99774.28;;;18.42;31.75
79639;BME280;69114;49.108;8.280;2023-04-15T13:15:29;99782.13;;;18.29;33.04
79639;BME280;69114;49.108;8.280;2023-04-15T13:17:54;99779.56;;;17.55;32.80
79639;BME280;69114;49.108;8.280;2023-04-15T13:20:20;99778.59;;;16.54;34.57
79639;BME280;69114;49.108;8.280;2023-04-15T13:22:46;99787.06;;;16.38;35.87
79639;BME280;69114;49.108;8.280;2023-04-15T13:25:11;99790.22;;;15.90;35.99